createdAt,value
2022-10-03T00:00:55.939Z,9.2
2022-10-03T00:02:12.174Z,9.2
2022-10-03T00:03:28.416Z,9.2
2022-10-03T00:04:44.668Z,9.2
2022-10-03T00:06:00.896Z,9.2
2022-10-03T00:07:17.131Z,9.3
2022-10-03T00:08:33.374Z,9.3
2022-10-03T00:09:49.615Z,9.3
2022-10-03T00:11:05.854Z,9.3
2022-10-03T00:12:22.092Z,9.3
2022-10-03T00:13:38.334Z,9.3
2022-10-03T00:14:54.577Z,9.3
2022-10-03T00:16:10.823Z,9.3
2022-10-03T00:17:26.071Z,9.3
2022-10-03T00:18:42.327Z,9.3
2022-10-03T00:19:58.551Z,9.4
2022-10-03T00:21:14.804Z,9.3
2022-10-03T00:22:31.042Z,9.4
2022-10-03T00:23:47.266Z,9.4
2022-10-03T00:25:03.520Z,9.3
2022-10-03T00:26:19.754Z,9.3
2022-10-03T00:27:35.991Z,9.4
2022-10-03T00:28:52.224Z,9.4
2022-10-03T00:30:08.474Z,9.4
2022-10-03T00:31:24.717Z,9.4
2022-10-03T00:32:40.948Z,9.4
2022-10-03T00:33:56.214Z,9.5
2022-10-03T00:35:12.452Z,9.5
2022-10-03T00:36:28.688Z,9.5
2022-10-03T00:37:44.912Z,9.6
2022-10-03T00:39:01.171Z,9.6
2022-10-03T00:40:17.397Z,9.6
2022-10-03T00:41:33.644Z,9.7
2022-10-03T00:42:49.877Z,9.7
2022-10-03T00:44:06.119Z,9.7
2022-10-03T00:45:22.368Z,9.7
2022-10-03T00:46:38.604Z,9.7
2022-10-03T00:47:54.843Z,9.7
2022-10-03T00:49:11.069Z,9.7
2022-10-03T00:50:26.340Z,9.7
2022-10-03T00:51:42.575Z,9.6
2022-10-03T00:52:58.811Z,9.6
2022-10-03T00:54:15.052Z,9.6
2022-10-03T00:55:31.289Z,9.6
2022-10-03T00:56:47.529Z,9.5
2022-10-03T00:58:03.782Z,9.5
2022-10-03T00:59:20.024Z,9.5
2022-10-03T01:00:36.267Z,9.4
2022-10-03T01:01:52.502Z,9.4
2022-10-03T01:03:08.745Z,9.5
2022-10-03T01:04:24.976Z,9.4
2022-10-03T01:05:41.216Z,9.4
2022-10-03T01:06:56.480Z,9.4
2022-10-03T01:08:12.697Z,9.4
2022-10-03T01:09:28.943Z,9.3
2022-10-03T01:10:45.180Z,9.3
2022-10-03T01:12:01.416Z,9.3
2022-10-03T01:13:17.671Z,9.3
2022-10-03T01:14:33.897Z,9.3
2022-10-03T01:15:50.141Z,9.3
2022-10-03T01:17:06.393Z,9.3
2022-10-03T01:18:22.617Z,9.3
2022-10-03T01:19:38.860Z,9.3
2022-10-03T01:20:55.099Z,9.3
2022-10-03T01:22:11.348Z,9.3
2022-10-03T01:23:26.595Z,9.3
2022-10-03T01:24:42.833Z,9.4
2022-10-03T01:25:59.081Z,9.4
2022-10-03T01:27:15.313Z,9.5
2022-10-03T01:28:31.566Z,9.4
2022-10-03T01:29:47.806Z,9.5
2022-10-03T01:31:04.040Z,9.5
2022-10-03T01:32:20.277Z,9.5
2022-10-03T01:33:36.511Z,9.5
2022-10-03T01:34:52.751Z,9.5
2022-10-03T01:36:08.995Z,9.5
2022-10-03T01:37:25.230Z,9.6
2022-10-03T01:38:41.483Z,9.6
2022-10-03T01:39:56.729Z,9.6
2022-10-03T01:41:12.979Z,9.6
2022-10-03T01:42:29.218Z,9.6
2022-10-03T01:43:45.437Z,9.6
2022-10-03T01:45:01.703Z,9.6
2022-10-03T01:46:17.920Z,9.5
2022-10-03T01:47:34.177Z,9.5
2022-10-03T01:48:50.411Z,9.5
2022-10-03T01:50:06.652Z,9.4
2022-10-03T01:51:22.884Z,9.4
2022-10-03T01:52:39.136Z,9.4
2022-10-03T01:53:55.373Z,9.4
2022-10-03T01:55:11.620Z,9.3
2022-10-03T01:56:26.860Z,9.3
2022-10-03T01:57:43.108Z,9.3
2022-10-03T01:58:59.343Z,9.3
2022-10-03T02:00:15.573Z,9.2
2022-10-03T02:01:31.815Z,9.2
2022-10-03T02:02:48.055Z,9.2
2022-10-03T02:04:04.294Z,9.2
2022-10-03T02:05:20.535Z,9.2
2022-10-03T02:06:36.785Z,9.1
2022-10-03T02:07:53.018Z,9.1
2022-10-03T02:09:09.248Z,9.1
2022-10-03T02:10:25.507Z,9.1
2022-10-03T02:11:41.733Z,9.1
2022-10-03T02:12:56.996Z,9.1
2022-10-03T02:14:13.234Z,9.1
2022-10-03T02:15:29.467Z,9.1
2022-10-03T02:16:45.704Z,9.1
2022-10-03T02:18:01.967Z,9.1
2022-10-03T02:19:18.198Z,9.1
2022-10-03T02:20:34.438Z,9.1
2022-10-03T02:21:50.673Z,9.1
2022-10-03T02:23:06.910Z,9
2022-10-03T02:24:23.147Z,9
2022-10-03T02:25:39.401Z,9
2022-10-03T02:26:55.632Z,9
2022-10-03T02:28:11.882Z,9
2022-10-03T02:29:27.119Z,9
2022-10-03T02:30:43.366Z,9
2022-10-03T02:31:59.612Z,9
2022-10-03T02:33:15.854Z,9
2022-10-03T02:34:32.073Z,9
2022-10-03T02:35:48.309Z,9
2022-10-03T02:37:04.550Z,9
2022-10-03T02:38:20.803Z,9
2022-10-03T02:39:37.042Z,9
2022-10-03T02:40:53.288Z,9
2022-10-03T02:42:09.532Z,9
2022-10-03T02:43:25.770Z,9
2022-10-03T02:44:42.006Z,9
2022-10-03T02:45:57.266Z,9
2022-10-03T02:47:13.490Z,9.1
2022-10-03T02:48:29.741Z,9
2022-10-03T02:49:45.952Z,9.1
2022-10-03T02:51:02.209Z,9
2022-10-03T02:52:18.429Z,9
2022-10-03T02:53:34.693Z,9
2022-10-03T02:54:50.936Z,9
2022-10-03T02:56:07.169Z,9
2022-10-03T02:57:23.407Z,9
2022-10-03T02:58:39.628Z,9
2022-10-03T02:59:55.886Z,8.9
2022-10-03T03:01:12.110Z,8.9
2022-10-03T03:02:27.383Z,8.9
2022-10-03T03:03:43.632Z,8.9
2022-10-03T03:04:59.851Z,8.9
2022-10-03T03:06:16.107Z,8.9
2022-10-03T03:07:32.000Z,8.9
2022-10-03T03:08:48.572Z,8.9
2022-10-03T03:10:03.840Z,8.9
2022-10-03T03:11:20.099Z,9
2022-10-03T03:12:36.328Z,9
2022-10-03T03:13:52.542Z,9
2022-10-03T03:15:08.814Z,9
2022-10-03T03:16:25.052Z,9.1
2022-10-03T03:17:41.292Z,9.1
2022-10-03T03:18:57.533Z,9.2
2022-10-03T03:20:13.744Z,9.2
2022-10-03T03:21:29.997Z,9.2
2022-10-03T03:22:46.238Z,9.3
2022-10-03T03:24:02.459Z,9.3
2022-10-03T03:25:18.727Z,9.3
2022-10-03T03:26:33.989Z,9.4
2022-10-03T03:27:50.218Z,9.4
2022-10-03T03:29:06.464Z,9.4
2022-10-03T03:30:22.696Z,9.4
2022-10-03T03:31:38.950Z,9.4
2022-10-03T03:32:55.159Z,9.4
2022-10-03T03:34:11.425Z,9.5
2022-10-03T03:35:27.635Z,9.4
2022-10-03T03:36:43.905Z,9.4
2022-10-03T03:38:00.130Z,9.5
2022-10-03T03:39:16.370Z,9.5
2022-10-03T03:40:32.624Z,9.5
2022-10-03T03:41:48.849Z,9.5
2022-10-03T03:43:04.106Z,9.5
2022-10-03T03:44:20.351Z,9.5
2022-10-03T03:45:36.593Z,9.6
2022-10-03T03:46:52.823Z,9.6
2022-10-03T03:48:09.065Z,9.6
2022-10-03T03:49:25.313Z,9.6
2022-10-03T03:50:41.558Z,9.6
2022-10-03T03:51:57.783Z,9.6
2022-10-03T03:53:14.036Z,9.7
2022-10-03T03:54:30.279Z,9.7
2022-10-03T03:55:46.493Z,9.7
2022-10-03T03:57:02.753Z,9.7
2022-10-03T03:58:18.965Z,9.7
2022-10-03T03:59:34.239Z,9.7
2022-10-03T04:00:50.475Z,9.7
2022-10-03T04:02:06.713Z,9.7
2022-10-03T04:03:22.946Z,9.8
2022-10-03T04:04:39.209Z,9.8
2022-10-03T04:05:55.418Z,9.8
2022-10-03T04:07:11.667Z,9.8
2022-10-03T04:08:27.890Z,9.8
2022-10-03T04:09:44.137Z,9.8
2022-10-03T04:11:00.373Z,9.7
2022-10-03T04:12:16.633Z,9.8
2022-10-03T04:13:32.862Z,9.7
2022-10-03T04:14:49.095Z,9.7
2022-10-03T04:16:04.368Z,9.7
2022-10-03T04:17:20.604Z,9.7
2022-10-03T04:18:36.861Z,9.8
2022-10-03T04:19:53.100Z,9.7
2022-10-03T04:21:09.320Z,9.7
2022-10-03T04:22:25.567Z,9.7
2022-10-03T04:23:41.787Z,9.7
2022-10-03T04:24:58.053Z,9.8
2022-10-03T04:26:14.270Z,9.8
2022-10-03T04:27:30.524Z,9.8
2022-10-03T04:28:46.763Z,9.8
2022-10-03T04:30:03.012Z,9.9
2022-10-03T04:31:19.246Z,9.9
2022-10-03T04:32:34.505Z,9.9
2022-10-03T04:33:50.748Z,9.9
2022-10-03T04:35:06.987Z,9.9
2022-10-03T04:36:23.202Z,9.9
2022-10-03T04:37:39.460Z,9.9
2022-10-03T04:38:55.700Z,10
2022-10-03T04:40:11.937Z,10
2022-10-03T04:41:28.189Z,10
2022-10-03T04:42:44.420Z,10
2022-10-03T04:44:00.633Z,10
2022-10-03T04:45:16.872Z,10
2022-10-03T04:46:33.139Z,10
2022-10-03T04:47:49.373Z,9.9
2022-10-03T04:49:04.609Z,10
2022-10-03T04:50:20.882Z,9.9
2022-10-03T04:51:37.085Z,9.9
2022-10-03T04:52:53.349Z,9.9
2022-10-03T04:54:09.599Z,10
2022-10-03T04:55:25.827Z,9.9
2022-10-03T04:56:42.048Z,9.9
2022-10-03T04:57:58.302Z,9.9
2022-10-03T04:59:14.532Z,9.9
2022-10-03T05:00:30.792Z,9.9
2022-10-03T05:01:47.003Z,10
2022-10-03T05:03:03.270Z,9.9
2022-10-03T05:04:19.480Z,10
2022-10-03T05:05:34.765Z,10
2022-10-03T05:06:50.985Z,10
2022-10-03T05:08:07.240Z,10
2022-10-03T05:09:23.476Z,10
2022-10-03T05:10:39.714Z,10
2022-10-03T05:11:55.960Z,10
2022-10-03T05:13:12.211Z,10
2022-10-03T05:14:28.431Z,10
2022-10-03T05:15:44.662Z,10.1
2022-10-03T05:17:00.933Z,10.1
2022-10-03T05:18:17.156Z,10.1
2022-10-03T05:19:33.371Z,10.1
2022-10-03T05:20:49.642Z,10.1
2022-10-03T05:22:04.891Z,10.1
2022-10-03T05:23:21.108Z,10.1
2022-10-03T05:24:37.384Z,10.1
2022-10-03T05:25:53.593Z,10.1
2022-10-03T05:27:09.848Z,10.1
2022-10-03T05:28:26.103Z,10.1
2022-10-03T05:29:42.326Z,10.1
2022-10-03T05:30:58.570Z,10.2
2022-10-03T05:32:14.805Z,10.1
2022-10-03T05:34:47.301Z,10.2
2022-10-03T05:36:03.526Z,10.2
2022-10-03T05:37:19.764Z,10.2
2022-10-03T05:38:35.025Z,10.2
2022-10-03T05:39:51.275Z,10.2
2022-10-03T05:41:07.000Z,10.3
2022-10-03T05:42:23.753Z,10.3
2022-10-03T05:43:39.985Z,10.3
2022-10-03T05:44:56.215Z,10.3
2022-10-03T05:46:12.456Z,10.3
2022-10-03T05:47:28.677Z,10.3
2022-10-03T05:48:44.949Z,10.3
2022-10-03T05:50:01.167Z,10.3
2022-10-03T05:51:17.419Z,10.3
2022-10-03T05:52:33.662Z,10.3
2022-10-03T05:53:49.894Z,10.4
2022-10-03T05:55:05.131Z,10.3
2022-10-03T05:56:21.380Z,10.3
2022-10-03T05:57:37.614Z,10.4
2022-10-03T05:58:53.876Z,10.4
2022-10-03T06:00:10.099Z,10.4
2022-10-03T06:01:26.361Z,10.4
2022-10-03T06:02:42.601Z,10.5
2022-10-03T06:03:58.832Z,10.5
2022-10-03T06:05:15.064Z,10.5
2022-10-03T06:06:31.303Z,10.5
2022-10-03T06:07:47.532Z,10.5
2022-10-03T06:09:03.772Z,10.5
2022-10-03T06:10:20.007Z,10.5
2022-10-03T06:11:35.285Z,10.6
2022-10-03T06:12:51.521Z,10.6
2022-10-03T06:14:07.768Z,10.7
2022-10-03T06:15:24.012Z,10.7
2022-10-03T06:16:40.239Z,10.7
2022-10-03T06:17:56.484Z,10.7
2022-10-03T06:19:12.733Z,10.8
2022-10-03T06:20:28.962Z,10.8
2022-10-03T06:21:45.203Z,10.8
2022-10-03T06:23:01.421Z,10.8
2022-10-03T06:24:17.655Z,10.8
2022-10-03T06:25:33.900Z,10.9
2022-10-03T06:26:50.135Z,10.9
2022-10-03T06:28:05.400Z,10.9
2022-10-03T06:29:21.660Z,10.8
2022-10-03T06:30:37.903Z,10.9
2022-10-03T06:31:54.135Z,10.9
2022-10-03T06:33:10.368Z,10.9
2022-10-03T06:34:26.614Z,10.9
2022-10-03T06:35:42.846Z,10.9
2022-10-03T06:36:59.096Z,10.9
2022-10-03T06:38:15.324Z,10.9
2022-10-03T06:39:31.567Z,11
2022-10-03T06:40:47.817Z,10.9
2022-10-03T06:42:04.055Z,10.9
2022-10-03T06:43:20.276Z,11
2022-10-03T06:44:35.548Z,11
2022-10-03T06:45:51.776Z,11
2022-10-03T06:47:08.023Z,11
2022-10-03T06:48:24.243Z,11
2022-10-03T06:49:40.477Z,11.1
2022-10-03T06:50:56.747Z,11.2
2022-10-03T06:52:12.986Z,11.2
2022-10-03T06:53:29.230Z,11.2
2022-10-03T06:54:45.443Z,11.3
2022-10-03T06:56:01.676Z,11.3
2022-10-03T06:57:17.921Z,11.4
2022-10-03T06:58:34.172Z,11.4
2022-10-03T06:59:50.427Z,11.4
2022-10-03T07:01:05.667Z,11.5
2022-10-03T07:02:21.910Z,11.5
2022-10-03T07:03:38.166Z,11.6
2022-10-03T07:04:54.377Z,11.6
2022-10-03T07:06:10.645Z,11.6
2022-10-03T07:07:26.868Z,11.7
2022-10-03T07:08:43.099Z,11.8
2022-10-03T07:09:59.325Z,11.9
2022-10-03T07:11:15.564Z,12
2022-10-03T07:12:31.806Z,12
2022-10-03T07:13:48.080Z,12
2022-10-03T07:15:04.308Z,12
2022-10-03T07:16:20.554Z,12
2022-10-03T07:17:35.798Z,12.1
2022-10-03T07:18:52.016Z,12.1
2022-10-03T07:20:08.282Z,12.1
2022-10-03T07:21:24.525Z,12.2
2022-10-03T07:22:40.757Z,12.2
2022-10-03T07:23:56.980Z,12.2
2022-10-03T07:25:12.264Z,12.3
2022-10-03T07:26:28.479Z,12.4
2022-10-03T07:27:44.712Z,12.4
2022-10-03T07:29:00.954Z,12.4
2022-10-03T07:30:17.231Z,12.4
2022-10-03T07:31:33.460Z,12.4
2022-10-03T07:32:49.692Z,12.5
2022-10-03T07:34:05.941Z,12.6
2022-10-03T07:35:22.152Z,12.7
2022-10-03T07:36:38.410Z,12.7
2022-10-03T07:37:54.652Z,12.8
2022-10-03T07:39:10.908Z,12.8
2022-10-03T07:40:27.108Z,12.8
2022-10-03T07:41:42.369Z,12.9
2022-10-03T07:42:58.625Z,12.9
2022-10-03T07:44:14.876Z,12.9
2022-10-03T07:45:31.116Z,13
2022-10-03T07:46:47.340Z,13.4
2022-10-03T07:48:03.603Z,13.3
2022-10-03T07:49:19.798Z,13.4
2022-10-03T07:50:36.069Z,13.4
2022-10-03T07:51:52.299Z,13.4
2022-10-03T07:53:08.544Z,13.4
2022-10-03T07:54:24.759Z,13.4
2022-10-03T07:55:41.022Z,13.4
2022-10-03T07:56:57.266Z,13.4
2022-10-03T07:58:12.513Z,13.4
2022-10-03T07:59:28.770Z,13.5
2022-10-03T08:00:45.009Z,13.6
2022-10-03T08:02:01.249Z,13.5
2022-10-03T08:03:17.480Z,13.5
2022-10-03T08:04:33.685Z,13.4
2022-10-03T08:05:49.935Z,13.3
2022-10-03T08:07:06.191Z,13.3
2022-10-03T08:08:22.426Z,13.2
2022-10-03T08:09:38.669Z,13.2
2022-10-03T08:10:54.907Z,13.2
2022-10-03T08:12:11.157Z,13.2
2022-10-03T08:13:27.374Z,13.2
2022-10-03T08:14:42.643Z,13.2
2022-10-03T08:15:58.879Z,13.2
2022-10-03T08:17:15.121Z,13.8
2022-10-03T08:18:31.357Z,13.7
2022-10-03T08:19:47.596Z,13.6
2022-10-03T08:21:03.835Z,13.5
2022-10-03T08:22:20.090Z,13.4
2022-10-03T08:23:36.328Z,13.3
2022-10-03T08:24:52.566Z,13.5
2022-10-03T08:26:08.806Z,14.4
2022-10-03T08:27:25.035Z,14.5
2022-10-03T08:28:41.280Z,15.2
2022-10-03T08:29:57.519Z,15.4
2022-10-03T08:31:12.770Z,15.5
2022-10-03T08:32:29.013Z,15.2
2022-10-03T08:33:45.263Z,14.9
2022-10-03T08:35:01.465Z,14.8
2022-10-03T08:36:17.723Z,14.6
2022-10-03T08:37:33.961Z,14.5
2022-10-03T08:38:50.219Z,14.4
2022-10-03T08:40:06.432Z,14.3
2022-10-03T08:41:22.657Z,14.2
2022-10-03T08:42:38.922Z,13.9
2022-10-03T08:43:55.161Z,13.8
2022-10-03T08:45:11.398Z,13.9
2022-10-03T08:46:27.654Z,14
2022-10-03T08:47:42.875Z,14.6
2022-10-03T08:48:59.132Z,14.7
2022-10-03T08:50:15.375Z,14.8
2022-10-03T08:51:31.621Z,14.6
2022-10-03T08:52:47.865Z,14.4
2022-10-03T08:54:04.091Z,14.3
2022-10-03T08:55:20.339Z,14.1
2022-10-03T08:56:36.587Z,14.1
2022-10-03T08:57:52.786Z,14.1
2022-10-03T08:59:09.049Z,14
2022-10-03T09:00:25.289Z,14
2022-10-03T09:01:41.544Z,14.1
2022-10-03T09:02:57.779Z,14.3
2022-10-03T09:04:13.024Z,14.6
2022-10-03T09:05:29.265Z,14.5
2022-10-03T09:06:45.480Z,14.4
2022-10-03T09:08:01.728Z,14.3
2022-10-03T09:09:17.980Z,14.3
2022-10-03T09:10:34.232Z,14.2
2022-10-03T09:11:50.467Z,14.1
2022-10-03T09:13:06.699Z,14.2
2022-10-03T09:14:22.913Z,15.2
2022-10-03T09:15:39.164Z,16.2
2022-10-03T09:16:55.426Z,16.6
2022-10-03T09:18:11.630Z,17.5
2022-10-03T09:19:27.907Z,17.7
2022-10-03T09:20:43.148Z,17.9
2022-10-03T09:21:59.379Z,17.6
2022-10-03T09:23:15.635Z,17.5
2022-10-03T09:24:31.880Z,17.4
2022-10-03T09:25:48.123Z,17.2
2022-10-03T09:27:04.355Z,16.7
2022-10-03T09:28:20.583Z,16.4
2022-10-03T09:29:36.805Z,16.2
2022-10-03T09:30:53.039Z,16.2
2022-10-03T09:33:25.530Z,16
2022-10-03T09:34:41.759Z,16.1
2022-10-03T09:35:58.016Z,16
2022-10-03T09:37:13.259Z,16
2022-10-03T09:38:29.500Z,15.9
2022-10-03T09:39:45.757Z,15.7
2022-10-03T09:41:01.985Z,15.7
2022-10-03T09:42:18.226Z,15.7
2022-10-03T09:43:34.446Z,15.7
2022-10-03T09:44:50.709Z,15.7
2022-10-03T09:46:06.942Z,15.7
2022-10-03T09:47:23.173Z,15.8
2022-10-03T09:48:39.414Z,16
2022-10-03T09:49:55.646Z,16.1
2022-10-03T09:51:11.895Z,16.2
2022-10-03T09:52:28.137Z,16.3
2022-10-03T09:53:43.389Z,16.5
2022-10-03T09:54:59.632Z,16.6
2022-10-03T09:56:15.864Z,16.6
2022-10-03T09:57:32.105Z,16.8
2022-10-03T09:58:48.353Z,16.8
2022-10-03T10:00:04.600Z,16.8
2022-10-03T10:01:20.835Z,16.8
2022-10-03T10:02:37.066Z,16.7
2022-10-03T10:03:53.309Z,16.6
2022-10-03T10:05:09.532Z,16.4
2022-10-03T10:06:25.780Z,16.2
2022-10-03T10:07:42.014Z,16.1
2022-10-03T10:08:58.259Z,16.3
2022-10-03T10:10:13.531Z,17
2022-10-03T10:11:29.753Z,17.8
2022-10-03T10:12:45.980Z,18.1
2022-10-03T10:14:02.221Z,17.9
2022-10-03T10:15:18.472Z,17.9
2022-10-03T10:16:34.715Z,17.8
2022-10-03T10:17:50.954Z,17.7
2022-10-03T10:19:07.204Z,17.7
2022-10-03T10:20:23.437Z,17.6
2022-10-03T10:21:39.676Z,17.5
2022-10-03T10:22:55.918Z,17.3
2022-10-03T10:24:12.135Z,17.1
2022-10-03T10:25:28.391Z,17
2022-10-03T10:26:43.630Z,17.3
2022-10-03T10:27:59.878Z,17.5
2022-10-03T10:29:16.135Z,17.5
2022-10-03T10:30:32.360Z,17.3
2022-10-03T10:31:48.585Z,17.2
2022-10-03T10:33:04.838Z,17
2022-10-03T10:34:21.073Z,17
2022-10-03T10:35:37.306Z,17.2
2022-10-03T10:36:53.563Z,17.2
2022-10-03T10:38:09.809Z,17.2
2022-10-03T10:39:26.028Z,17.4
2022-10-03T10:40:42.287Z,17.8
2022-10-03T10:41:58.526Z,18.1
2022-10-03T10:43:13.773Z,18.6
2022-10-03T10:44:30.015Z,18.3
2022-10-03T10:45:46.260Z,18.3
2022-10-03T10:47:02.477Z,18.1
2022-10-03T10:48:18.738Z,18.4
2022-10-03T10:49:34.954Z,18.4
2022-10-03T10:50:51.201Z,18
2022-10-03T10:52:07.456Z,17.8
2022-10-03T10:53:23.680Z,17.6
2022-10-03T10:54:39.907Z,17.5
2022-10-03T10:55:56.169Z,17.6
2022-10-03T10:57:12.410Z,17.4
2022-10-03T10:58:28.640Z,17.3
2022-10-03T10:59:43.897Z,17.3
2022-10-03T11:01:00.132Z,17.1
2022-10-03T11:02:16.385Z,16.9
2022-10-03T11:03:32.610Z,16.7
2022-10-03T11:04:48.866Z,16.5
2022-10-03T11:06:05.091Z,16.4
2022-10-03T11:07:21.327Z,16.1
2022-10-03T11:08:37.583Z,15.9
2022-10-03T11:09:53.805Z,15.8
2022-10-03T11:11:10.051Z,15.8
2022-10-03T11:12:26.297Z,16.9
2022-10-03T11:13:42.529Z,18.4
2022-10-03T11:14:58.776Z,18.7
2022-10-03T11:16:14.017Z,18.8
2022-10-03T11:17:30.253Z,18.8
2022-10-03T11:18:46.497Z,18.7
2022-10-03T11:20:02.750Z,18.5
2022-10-03T11:21:18.970Z,18.7
2022-10-03T11:22:35.224Z,19.4
2022-10-03T11:23:51.464Z,19.2
2022-10-03T11:25:07.702Z,19.6
2022-10-03T11:26:23.943Z,20.5
2022-10-03T11:27:40.185Z,21.3
2022-10-03T11:28:56.398Z,21.8
2022-10-03T11:30:12.645Z,22
2022-10-03T11:31:28.895Z,21.3
2022-10-03T11:32:44.140Z,20.5
2022-10-03T11:34:00.391Z,19.9
2022-10-03T11:35:16.619Z,19.5
2022-10-03T11:36:32.862Z,19.1
2022-10-03T11:37:49.111Z,18.7
2022-10-03T11:39:05.340Z,18.4
2022-10-03T11:40:20.589Z,18.1
2022-10-03T11:41:36.847Z,17.9
2022-10-03T11:42:53.087Z,17.7
2022-10-03T11:44:09.319Z,17.4
2022-10-03T11:45:25.561Z,17.4
2022-10-03T11:46:41.803Z,17.4
2022-10-03T11:47:58.032Z,17.4
2022-10-03T11:49:14.278Z,17.5
2022-10-03T11:50:30.526Z,17.5
2022-10-03T11:51:46.748Z,17.6
2022-10-03T11:53:02.990Z,17.4
2022-10-03T11:54:19.232Z,17.4
2022-10-03T11:55:35.468Z,17.3
2022-10-03T11:56:50.740Z,17.3
2022-10-03T11:58:06.966Z,17.4
2022-10-03T11:59:23.194Z,17.4
2022-10-03T12:00:39.458Z,17.5
2022-10-03T12:01:55.678Z,17.8
2022-10-03T12:03:11.937Z,17.8
2022-10-03T12:04:28.173Z,17.8
2022-10-03T12:05:44.394Z,17.8
2022-10-03T12:07:00.642Z,17.8
2022-10-03T12:08:16.894Z,17.7
2022-10-03T12:09:33.116Z,17.7
2022-10-03T12:10:49.357Z,17.7
2022-10-03T12:12:05.600Z,17.6
2022-10-03T12:13:20.863Z,17.6
2022-10-03T12:14:37.076Z,17.5
2022-10-03T12:15:53.327Z,17.5
2022-10-03T12:17:09.568Z,17.5
2022-10-03T12:18:25.805Z,17.4
2022-10-03T12:19:42.060Z,17.4
2022-10-03T12:20:58.273Z,17.4
2022-10-03T12:22:14.514Z,17.4
2022-10-03T12:23:30.756Z,17.4
2022-10-03T12:24:47.016Z,17.3
2022-10-03T12:26:03.256Z,17.3
2022-10-03T12:27:19.494Z,17.3
2022-10-03T12:28:35.723Z,17.2
2022-10-03T12:29:50.983Z,17.2
2022-10-03T12:31:07.226Z,17.1
2022-10-03T12:32:23.448Z,17
2022-10-03T12:33:39.694Z,17
2022-10-03T12:34:55.929Z,16.9
2022-10-03T12:36:12.157Z,16.9
2022-10-03T12:37:28.407Z,16.9
2022-10-03T12:38:44.641Z,17
2022-10-03T12:40:00.887Z,17
2022-10-03T12:41:17.136Z,17
2022-10-03T12:42:33.371Z,17
2022-10-03T12:43:49.604Z,17.1
2022-10-03T12:45:05.846Z,17.2
2022-10-03T12:46:21.110Z,17.3
2022-10-03T12:47:37.337Z,17.6
2022-10-03T12:48:53.582Z,17.5
2022-10-03T12:50:09.829Z,17.7
2022-10-03T12:51:26.048Z,17.6
2022-10-03T12:52:42.289Z,17.6
2022-10-03T12:53:58.541Z,17.6
2022-10-03T12:55:14.789Z,17.6
2022-10-03T12:56:31.023Z,17.7
2022-10-03T12:57:47.264Z,17.6
2022-10-03T12:59:03.476Z,17.7
2022-10-03T13:00:19.718Z,17.6
2022-10-03T13:01:35.965Z,17.6
2022-10-03T13:02:51.226Z,17.6
2022-10-03T13:04:07.474Z,17.5
2022-10-03T13:05:23.719Z,17.6
2022-10-03T13:06:39.941Z,17.6
2022-10-03T13:07:56.183Z,17.7
2022-10-03T13:09:12.424Z,17.7
2022-10-03T13:10:28.668Z,17.6
2022-10-03T13:11:44.901Z,17.6
2022-10-03T13:13:01.136Z,17.6
2022-10-03T13:14:17.392Z,17.6
2022-10-03T13:15:33.624Z,17.5
2022-10-03T13:16:49.854Z,17.5
2022-10-03T13:18:06.106Z,17.5
2022-10-03T13:19:21.359Z,17.5
2022-10-03T13:20:37.586Z,17.5
2022-10-03T13:21:53.834Z,17.4
2022-10-03T13:23:10.068Z,17.4
2022-10-03T13:24:26.304Z,17.3
2022-10-03T13:25:42.555Z,17.3
2022-10-03T13:26:58.780Z,17.2
2022-10-03T13:28:15.031Z,17.1
2022-10-03T13:29:31.269Z,17.1
2022-10-03T13:30:47.488Z,17
2022-10-03T13:32:03.744Z,16.9
2022-10-03T13:33:19.979Z,16.8
2022-10-03T13:34:36.229Z,16.9
2022-10-03T13:35:51.472Z,16.9
2022-10-03T13:37:07.726Z,16.8
2022-10-03T13:38:23.954Z,16.9
2022-10-03T13:39:40.178Z,16.8
2022-10-03T13:40:56.437Z,16.8
2022-10-03T13:42:12.671Z,16.8
2022-10-03T13:43:28.914Z,16.8
2022-10-03T13:44:45.159Z,16.7
2022-10-03T13:46:01.391Z,16.6
2022-10-03T13:47:17.000Z,16.6
2022-10-03T13:48:33.866Z,16.6
2022-10-03T13:49:50.119Z,16.5
2022-10-03T13:51:06.344Z,16.5
2022-10-03T13:52:21.617Z,16.5
2022-10-03T13:53:37.825Z,16.5
2022-10-03T13:54:54.064Z,16.6
2022-10-03T13:56:10.336Z,16.5
2022-10-03T13:57:26.548Z,16.4
2022-10-03T13:58:42.800Z,16.4
2022-10-03T13:59:59.041Z,16.3
2022-10-03T14:01:15.275Z,16.2
2022-10-03T14:02:31.530Z,16.1
2022-10-03T14:03:47.747Z,16.1
2022-10-03T14:05:03.998Z,16
2022-10-03T14:06:20.232Z,15.9
2022-10-03T14:07:37.307Z,15.9
2022-10-03T14:08:52.706Z,15.9
2022-10-03T14:10:07.956Z,15.8
2022-10-03T14:11:24.207Z,15.8
2022-10-03T14:12:40.441Z,15.8
2022-10-03T14:13:56.687Z,15.7
2022-10-03T14:15:12.926Z,15.7
2022-10-03T14:16:29.160Z,15.7
2022-10-03T14:17:45.396Z,15.6
2022-10-03T14:19:01.636Z,15.6
2022-10-03T14:20:17.867Z,15.6
2022-10-03T14:21:34.129Z,15.6
2022-10-03T14:22:50.361Z,15.6
2022-10-03T14:24:06.588Z,15.6
2022-10-03T14:25:22.836Z,15.6
2022-10-03T14:26:38.073Z,15.5
2022-10-03T14:27:54.331Z,15.5
2022-10-03T14:29:10.564Z,15.5
2022-10-03T14:30:26.803Z,15.5
2022-10-03T14:31:43.042Z,15.5
2022-10-03T14:32:59.295Z,15.5
2022-10-03T14:34:15.518Z,15.5
2022-10-03T14:35:31.766Z,15.5
2022-10-03T14:36:48.016Z,15.4
2022-10-03T14:38:04.254Z,15.4
2022-10-03T14:39:20.487Z,15.3
2022-10-03T14:40:36.706Z,15.3
2022-10-03T14:41:52.954Z,15.3
2022-10-03T14:43:08.209Z,15.3
2022-10-03T14:44:24.455Z,15.2
2022-10-03T14:45:40.697Z,15.2
2022-10-03T14:46:56.932Z,15.2
2022-10-03T14:48:13.171Z,15.2
2022-10-03T14:49:29.425Z,15.3
2022-10-03T14:50:45.658Z,15.5
2022-10-03T14:52:01.885Z,15.6
2022-10-03T14:53:18.136Z,15.5
2022-10-03T14:54:34.375Z,15.7
2022-10-03T14:55:50.615Z,15.7
2022-10-03T14:57:06.844Z,15.6
2022-10-03T14:58:23.096Z,15.5
2022-10-03T14:59:38.354Z,15.4
2022-10-03T15:00:54.580Z,15.5
2022-10-03T15:02:10.823Z,15.7
2022-10-03T15:03:27.062Z,15.5
2022-10-03T15:04:43.310Z,15.4
2022-10-03T15:05:59.541Z,15.3
2022-10-03T15:08:32.016Z,15.2
2022-10-03T15:09:48.262Z,15.2
2022-10-03T15:11:04.493Z,15.2
2022-10-03T15:12:20.731Z,15.2
2022-10-03T15:13:36.972Z,15.2
2022-10-03T15:14:53.211Z,15.2
2022-10-03T15:16:08.456Z,15.2
2022-10-03T15:17:24.709Z,15.3
2022-10-03T15:18:40.934Z,15.2
2022-10-03T15:19:57.188Z,15.2
2022-10-03T15:21:13.422Z,15.2
2022-10-03T15:22:29.675Z,15.3
2022-10-03T15:23:45.913Z,15.3
2022-10-03T15:25:02.149Z,15.3
2022-10-03T15:26:18.381Z,15.3
2022-10-03T15:27:34.609Z,15.3
2022-10-03T15:28:50.855Z,15.3
2022-10-03T15:30:07.101Z,15.3
2022-10-03T15:31:23.324Z,15.2
2022-10-03T15:32:38.601Z,15.2
2022-10-03T15:33:54.840Z,15.1
2022-10-03T15:35:11.064Z,15.1
2022-10-03T15:36:27.306Z,15.1
2022-10-03T15:37:43.552Z,15
2022-10-03T15:38:59.788Z,15
2022-10-03T15:40:16.038Z,15
2022-10-03T15:41:32.263Z,15.1
2022-10-03T15:42:48.516Z,15
2022-10-03T15:44:04.751Z,15.1
2022-10-03T15:45:20.998Z,15
2022-10-03T15:46:37.219Z,15
2022-10-03T15:47:53.458Z,15
2022-10-03T15:49:08.716Z,15
2022-10-03T15:50:24.950Z,15
2022-10-03T15:51:41.189Z,15
2022-10-03T15:52:57.449Z,15
2022-10-03T15:54:13.665Z,14.9
2022-10-03T15:55:28.934Z,14.9
2022-10-03T15:56:45.178Z,14.9
2022-10-03T15:58:01.427Z,14.9
2022-10-03T15:59:17.654Z,14.9
2022-10-03T16:00:33.904Z,14.9
2022-10-03T16:01:50.127Z,14.9
2022-10-03T16:03:06.378Z,14.9
2022-10-03T16:04:22.619Z,14.9
2022-10-03T16:05:38.850Z,14.9
2022-10-03T16:06:55.097Z,14.9
2022-10-03T16:08:11.334Z,14.8
2022-10-03T16:09:27.567Z,14.8
2022-10-03T16:10:43.820Z,14.8
2022-10-03T16:11:59.067Z,14.7
2022-10-03T16:13:15.316Z,14.7
2022-10-03T16:14:31.538Z,14.7
2022-10-03T16:15:47.795Z,14.6
2022-10-03T16:17:04.012Z,14.6
2022-10-03T16:18:20.262Z,14.6
2022-10-03T16:19:36.512Z,14.6
2022-10-03T16:20:52.737Z,14.6
2022-10-03T16:22:08.983Z,14.6
2022-10-03T16:23:25.229Z,14.5
2022-10-03T16:24:41.461Z,14.5
2022-10-03T16:25:57.696Z,14.5
2022-10-03T16:27:13.928Z,14.5
2022-10-03T16:28:29.186Z,14.4
2022-10-03T16:29:45.425Z,14.4
2022-10-03T16:31:01.666Z,14.4
2022-10-03T16:32:17.913Z,14.4
2022-10-03T16:33:34.156Z,14.4
2022-10-03T16:34:50.373Z,14.4
2022-10-03T16:36:06.630Z,14.3
2022-10-03T16:37:22.873Z,14.3
2022-10-03T16:38:39.112Z,14.3
2022-10-03T16:39:55.348Z,14.3
2022-10-03T16:41:11.570Z,14.3
2022-10-03T16:42:27.810Z,14.3
2022-10-03T16:43:44.061Z,14.3
2022-10-03T16:44:59.326Z,14.2
2022-10-03T16:46:15.568Z,14.2
2022-10-03T16:47:31.780Z,14.2
2022-10-03T16:48:48.000Z,14.2
2022-10-03T16:50:04.271Z,14.2
2022-10-03T16:51:20.521Z,14.2
2022-10-03T16:52:36.747Z,14.2
2022-10-03T16:53:52.992Z,14.1
2022-10-03T16:55:09.236Z,14.1
2022-10-03T16:56:25.479Z,14.1
2022-10-03T16:57:41.713Z,14.1
2022-10-03T16:58:57.956Z,14.1
2022-10-03T17:00:14.196Z,14.1
2022-10-03T17:01:29.450Z,14.1
2022-10-03T17:02:45.691Z,14
2022-10-03T17:04:01.908Z,14
2022-10-03T17:05:18.151Z,14
2022-10-03T17:06:34.400Z,14
2022-10-03T17:07:50.640Z,13.9
2022-10-03T17:09:06.885Z,13.8
2022-10-03T17:10:23.104Z,13.7
2022-10-03T17:11:39.368Z,13.5
2022-10-03T17:12:55.601Z,13.5
2022-10-03T17:14:11.842Z,13.4
2022-10-03T17:15:28.064Z,13.4